LTCF

Kars Airport

Kars, Turkey
TAF AMD LTCF 201813Z 2018/2103 03008KT 9999 BKN025 BKN070 TEMPO 2018/2021 -SNRA
Issued Valid From Valid To
Apr-20 @ 18:13 UTC
(25 minutes ago)
Apr-20 @ 18:00 UTC
(38 minutes ago)
Apr-21 @ 03:00 UTC
(in 8 hours)
Apr-20 @ 18:00 to Apr-21 @ 03:00
TAF AMD LTCF 201813Z 2018/2103 03008KT 9999 BKN025 BKN070
Wind Visibility Clouds
30° at 8 knots 10,000+ meters
  • Broken at 2,500' AGL
  • Broken at 7,000' AGL
Temporary Apr-20 @ 18:00 to Apr-20 @ 21:00
TEMPO 2018/2021 -SNRA
Conditions
  • Light Snow
  • Light Rain
TAF AMD LTCF 201813Z 2018/2103 03008KT 9999 BKN025 BKN070 TEMPO 2018/2021 -SNRA
Issued Apr-20 @ 18:13 UTC
(25 minutes ago)
Valid From Apr-20 @ 18:00 UTC
(38 minutes ago)
Valid To Apr-21 @ 03:00 UTC
(in 8 hours)
Apr-20 @ 18:00 - Apr-21 @ 03:00
Wind Visibility
30° at 8 knots 10,000+ meters
Clouds
  • Broken at 2,500' AGL
  • Broken at 7,000' AGL
Temporary Apr-20 @ 18:00 - Apr-20 @ 21:00
Conditions
  • Light Snow
  • Light Rain